createdAt,value
2023-03-26T00:02:30.460Z,100019.59
2023-03-26T00:04:58.312Z,100029.34
2023-03-26T00:07:27.880Z,100034.34
2023-03-26T00:09:57.825Z,100036.31
2023-03-26T00:12:26.465Z,100043.56
2023-03-26T00:14:56.345Z,100040.06
2023-03-26T00:17:30.362Z,100048.28
2023-03-26T00:19:59.626Z,100048.28
2023-03-26T00:22:27.187Z,100045.50
2023-03-26T00:24:56.798Z,100043.81
2023-03-26T00:27:27.570Z,100043.69
2023-03-26T00:29:56.714Z,100045.50
2023-03-26T00:32:27.804Z,100056.09
2023-03-26T00:35:22.320Z,100054.56
2023-03-26T00:37:51.501Z,100056.22
2023-03-26T00:40:19.371Z,100055.00
2023-03-26T00:42:47.399Z,100054.28
2023-03-26T00:45:21.136Z,100051.75
2023-03-26T00:47:49.154Z,100049.94
2023-03-26T00:50:18.043Z,100048.28
2023-03-26T00:52:48.340Z,100050.78
2023-03-26T00:55:16.089Z,100056.09
2023-03-26T00:57:45.953Z,100052.75
2023-03-26T01:00:17.133Z,100047.44
2023-03-26T01:02:45.395Z,100048.28
2023-03-26T01:05:43.377Z,100040.91
2023-03-26T01:08:22.590Z,100042.97
2023-03-26T01:10:52.370Z,100038.66
2023-03-26T01:13:21.903Z,100024.59
2023-03-26T01:15:51.056Z,100022.78
2023-03-26T01:18:21.788Z,100023.63
2023-03-26T01:20:52.374Z,100025.44
2023-03-26T01:23:26.364Z,100019.84
2023-03-26T01:26:42.720Z,100024.31
2023-03-26T01:29:18.647Z,100020.00
2023-03-26T01:31:55.580Z,100014.84
2023-03-26T01:34:30.668Z,100017.47
2023-03-26T01:37:09.393Z,100020.97
2023-03-26T01:39:50.383Z,100012.19
2023-03-26T01:42:25.869Z,100008.72
2023-03-26T01:44:58.960Z,100008.72
2023-03-26T01:47:27.198Z,100005.91
2023-03-26T01:49:55.889Z,100005.78
2023-03-26T01:52:26.211Z,100004.78
2023-03-26T01:54:55.390Z,99997.69
2023-03-26T01:57:35.767Z,99998.53
2023-03-26T02:00:22.009Z,100000.34
2023-03-26T02:03:03.509Z,99992.28
2023-03-26T02:05:35.751Z,99987.81
2023-03-26T02:08:09.549Z,99981.53
2023-03-26T02:10:41.489Z,99984.88
2023-03-26T02:13:11.082Z,99984.88
2023-03-26T02:15:39.369Z,99974.28
2023-03-26T02:18:10.702Z,99970.66
2023-03-26T02:20:38.549Z,99976.81
2023-03-26T02:23:06.627Z,99967.06
2023-03-26T02:25:35.721Z,99967.88
2023-03-26T02:28:04.190Z,99963.44
2023-03-26T02:30:33.777Z,99956.31
2023-03-26T02:33:01.955Z,99955.47
2023-03-26T02:35:40.318Z,99957.16
2023-03-26T02:38:10.445Z,99946.69
2023-03-26T02:40:38.189Z,99943.06
2023-03-26T02:43:06.200Z,99945.72
2023-03-26T02:45:37.421Z,99943.06
2023-03-26T02:48:08.391Z,99941.41
2023-03-26T02:50:42.341Z,99946.56
2023-03-26T02:53:30.364Z,99942.09
2023-03-26T02:56:17.192Z,99934.16
2023-03-26T02:58:59.360Z,99931.50
2023-03-26T03:01:30.813Z,99940.28
2023-03-26T03:04:01.411Z,99936.66
2023-03-26T03:06:38.177Z,99923.41
2023-03-26T03:09:06.373Z,99927.59
2023-03-26T03:11:53.969Z,99925.78
2023-03-26T03:14:22.027Z,99923.16
2023-03-26T03:16:51.444Z,99922.00
2023-03-26T03:19:19.088Z,99918.38
2023-03-26T03:21:48.353Z,99915.72
2023-03-26T03:24:18.446Z,99910.31
2023-03-26T03:26:50.149Z,99915.47
2023-03-26T03:29:31.456Z,99912.53
2023-03-26T03:32:10.156Z,99915.31
2023-03-26T03:34:43.859Z,99910.03
2023-03-26T03:37:12.551Z,99908.22
2023-03-26T03:39:47.120Z,99898.19
2023-03-26T03:42:20.360Z,99898.44
2023-03-26T03:44:51.325Z,99900.97
2023-03-26T03:47:40.747Z,99894.84
2023-03-26T03:50:10.380Z,99892.06
2023-03-26T03:53:10.931Z,99889.41
2023-03-26T03:55:42.012Z,99889.25
2023-03-26T03:58:10.162Z,99886.59
2023-03-26T04:01:06.430Z,99881.31
2023-03-26T04:03:56.725Z,99877.69
2023-03-26T04:06:31.144Z,99874.19
2023-03-26T04:08:59.360Z,99873.22
2023-03-26T04:11:27.348Z,99879.50
2023-03-26T04:14:27.188Z,99867.22
2023-03-26T04:17:05.281Z,99871.84
2023-03-26T04:19:38.400Z,99871.84
2023-03-26T04:22:09.323Z,99867.38
2023-03-26T04:24:48.664Z,99860.25
2023-03-26T04:27:18.502Z,99860.41
2023-03-26T04:29:50.559Z,99861.38
2023-03-26T04:32:26.389Z,99854.25
2023-03-26T04:35:00.358Z,99857.03
2023-03-26T04:37:34.396Z,99856.06
2023-03-26T04:40:14.651Z,99854.41
2023-03-26T04:42:59.850Z,99857.34
2023-03-26T04:45:47.854Z,99852.16
2023-03-26T04:48:16.361Z,99851.34
2023-03-26T04:50:46.483Z,99847.59
2023-03-26T04:53:18.085Z,99839.78
2023-03-26T04:55:56.517Z,99833.63
2023-03-26T04:58:44.168Z,99828.47
2023-03-26T05:01:13.767Z,99827.50
2023-03-26T05:03:45.599Z,99828.06
2023-03-26T05:06:18.627Z,99823.03
2023-03-26T05:09:12.400Z,99828.47
2023-03-26T05:12:09.243Z,99825.97
2023-03-26T05:14:48.767Z,99821.38
2023-03-26T05:17:24.798Z,99820.53
2023-03-26T05:19:56.343Z,99805.63
2023-03-26T05:22:27.382Z,99806.47
2023-03-26T05:25:16.650Z,99799.34
2023-03-26T05:27:47.391Z,99802.81
2023-03-26T05:30:42.761Z,99805.47
2023-03-26T05:33:11.989Z,99795.72
2023-03-26T05:35:49.304Z,99792.22
2023-03-26T05:38:18.353Z,99793.06
2023-03-26T05:40:46.060Z,99793.91
2023-03-26T05:43:19.056Z,99790.41
2023-03-26T05:45:50.855Z,99788.59
2023-03-26T05:48:28.698Z,99785.13
2023-03-26T05:50:58.108Z,99785.94
2023-03-26T05:53:30.364Z,99783.47
2023-03-26T05:56:19.478Z,99779.00
2023-03-26T05:59:16.402Z,99775.50
2023-03-26T06:02:02.564Z,99771.88
2023-03-26T06:04:50.912Z,99772.88
2023-03-26T06:07:42.497Z,99768.41
2023-03-26T06:10:19.366Z,99763.94
2023-03-26T06:12:47.367Z,99762.97
2023-03-26T06:15:41.070Z,99762.97
2023-03-26T06:18:19.385Z,99752.22
2023-03-26T06:21:09.514Z,99749.44
2023-03-26T06:23:44.470Z,99744.97
2023-03-26T06:26:30.517Z,99740.22
2023-03-26T06:29:06.527Z,99734.94
2023-03-26T06:31:46.866Z,99742.72
2023-03-26T06:34:33.469Z,99732.97
2023-03-26T06:37:02.912Z,99732.69
2023-03-26T06:39:31.466Z,99737.00
2023-03-26T06:42:14.152Z,99733.22
2023-03-26T06:44:55.241Z,99731.41
2023-03-26T06:50:56.593Z,99733.47
2023-03-26T06:53:51.738Z,99727.06
2023-03-26T06:56:39.387Z,99725.91
2023-03-26T06:59:25.740Z,99726.59
2023-03-26T07:02:12.088Z,99727.97
2023-03-26T07:05:17.923Z,99718.94
2023-03-26T07:08:15.519Z,99716.81
2023-03-26T07:11:06.718Z,99711.06
2023-03-26T07:13:37.723Z,99714.41
2023-03-26T07:16:25.929Z,99708.81
2023-03-26T07:18:56.409Z,99707.69
2023-03-26T07:21:29.049Z,99706.41
2023-03-26T07:23:57.480Z,99706.97
2023-03-26T07:26:57.204Z,99702.16
2023-03-26T07:29:39.483Z,99704.53
2023-03-26T07:32:26.305Z,99697.94
2023-03-26T07:35:24.418Z,99694.16
2023-03-26T07:38:30.342Z,99696.22
2023-03-26T07:41:38.773Z,99696.59
2023-03-26T07:44:49.565Z,99685.00
2023-03-26T07:47:38.847Z,99679.69
2023-03-26T07:50:33.216Z,99686.38
2023-03-26T07:53:13.621Z,99682.41
2023-03-26T07:55:59.133Z,99681.81
2023-03-26T07:58:53.385Z,99677.34
2023-03-26T08:01:50.375Z,99676.06
2023-03-26T08:05:00.804Z,99669.91
2023-03-26T08:08:16.426Z,99663.63
2023-03-26T08:11:10.348Z,99672.94
2023-03-26T08:14:00.692Z,99665.81
2023-03-26T08:16:36.522Z,99666.59
2023-03-26T08:19:16.527Z,99662.94
2023-03-26T08:21:51.665Z,99666.28
2023-03-26T08:24:23.732Z,99664.16
2023-03-26T08:27:01.381Z,99668.47
2023-03-26T08:29:41.184Z,99670.97
2023-03-26T08:32:15.455Z,99658.69
2023-03-26T08:34:43.039Z,99660.34
2023-03-26T08:37:11.983Z,99661.19
2023-03-26T08:39:41.695Z,99661.06
2023-03-26T08:42:58.201Z,99653.75
2023-03-26T08:45:42.798Z,99651.94
2023-03-26T08:48:52.256Z,99656.09
2023-03-26T08:52:01.653Z,99649.66
2023-03-26T08:54:48.327Z,99654.81
2023-03-26T08:58:02.718Z,99654.81
2023-03-26T09:00:47.399Z,99646.00
2023-03-26T09:03:41.514Z,99647.00
2023-03-26T09:06:41.488Z,99645.19
2023-03-26T09:09:57.535Z,99643.19
2023-03-26T09:12:45.937Z,99644.25
2023-03-26T09:15:47.506Z,99639.25
2023-03-26T09:18:42.721Z,99637.91
2023-03-26T09:22:02.400Z,99638.06
2023-03-26T09:24:49.576Z,99637.22
2023-03-26T09:27:37.406Z,99630.31
2023-03-26T09:30:39.492Z,99636.06
2023-03-26T09:33:40.019Z,99631.25
2023-03-26T09:36:22.794Z,99633.28
2023-03-26T09:39:00.419Z,99636.19
2023-03-26T09:41:39.087Z,99628.09
2023-03-26T09:44:45.364Z,99633.53
2023-03-26T09:47:35.938Z,99627.06
2023-03-26T09:50:24.821Z,99627.38
2023-03-26T09:53:09.210Z,99628.06
2023-03-26T09:55:53.651Z,99627.06
2023-03-26T09:58:53.807Z,99624.41
2023-03-26T10:01:33.254Z,99629.09
2023-03-26T10:04:23.708Z,99625.69
2023-03-26T10:07:01.382Z,99629.22
2023-03-26T10:09:48.283Z,99622.91
2023-03-26T10:12:25.390Z,99623.59
2023-03-26T10:15:04.952Z,99618.66
2023-03-26T10:17:44.377Z,99629.25
2023-03-26T10:20:40.339Z,99622.66
2023-03-26T10:23:34.952Z,99629.00
2023-03-26T10:26:16.225Z,99619.91
2023-03-26T10:29:01.474Z,99624.06
2023-03-26T10:31:47.124Z,99620.44
2023-03-26T10:34:31.478Z,99619.72
2023-03-26T10:37:09.353Z,99617.59
2023-03-26T10:39:56.475Z,99612.50
2023-03-26T10:42:49.467Z,99615.56
2023-03-26T10:45:32.375Z,99609.41
2023-03-26T10:48:14.122Z,99618.94
2023-03-26T10:50:56.080Z,99612.28
2023-03-26T10:53:31.270Z,99612.50
2023-03-26T10:56:07.648Z,99614.63
2023-03-26T10:58:48.703Z,99613.47
2023-03-26T11:01:28.335Z,99614.53
2023-03-26T11:03:57.388Z,99616.47
2023-03-26T11:06:35.314Z,99616.00
2023-03-26T11:09:15.400Z,99613.69
2023-03-26T11:11:52.136Z,99609.97
2023-03-26T11:14:33.684Z,99614.63
2023-03-26T11:17:10.337Z,99605.38
2023-03-26T11:20:15.369Z,99608.38
2023-03-26T11:22:56.888Z,99614.53
2023-03-26T11:25:35.356Z,99608.28
2023-03-26T11:28:17.151Z,99610.44
2023-03-26T11:30:49.183Z,99609.31
2023-03-26T11:33:21.749Z,99611.47
2023-03-26T11:35:52.368Z,99609.31
2023-03-26T11:38:27.580Z,99602.63
2023-03-26T11:40:58.399Z,99606.28
2023-03-26T11:43:49.614Z,99609.44
2023-03-26T11:46:23.475Z,99605.28
2023-03-26T11:48:57.334Z,99608.28
2023-03-26T11:51:31.447Z,99600.81
2023-03-26T11:54:00.520Z,99606.50
2023-03-26T11:56:33.534Z,99610.50
2023-03-26T11:59:05.425Z,99598.00
2023-03-26T12:01:50.554Z,99598.34
2023-03-26T12:04:20.912Z,99603.19
2023-03-26T12:06:57.443Z,99598.66
2023-03-26T12:09:27.728Z,99598.34
2023-03-26T12:12:02.509Z,99602.00
2023-03-26T12:14:34.792Z,99601.66
2023-03-26T12:17:06.081Z,99595.50
2023-03-26T12:19:40.844Z,99599.53
2023-03-26T12:22:29.793Z,99604.66
2023-03-26T12:25:16.426Z,99595.94
2023-03-26T12:27:48.384Z,99597.03
2023-03-26T12:30:22.381Z,99598.13
2023-03-26T12:32:53.108Z,99595.75
2023-03-26T12:35:25.525Z,99592.09
2023-03-26T12:37:54.405Z,99585.22
2023-03-26T12:40:32.380Z,99586.28
2023-03-26T12:44:56.578Z,99596.22
2023-03-26T12:47:55.252Z,99593.06
2023-03-26T12:48:43.824Z,99596.22
2023-03-26T12:51:24.399Z,99598.78
2023-03-26T12:54:09.667Z,99595.22
2023-03-26T12:56:49.782Z,99600.38
2023-03-26T12:59:48.737Z,99599.69
2023-03-26T13:02:53.972Z,99599.53
2023-03-26T13:05:39.515Z,99608.50
2023-03-26T13:08:33.701Z,99604.00
2023-03-26T13:11:06.852Z,99605.16
2023-03-26T13:13:52.633Z,99607.81
2023-03-26T13:16:30.976Z,99610.47
2023-03-26T13:19:05.711Z,99609.78
2023-03-26T13:21:45.959Z,99606.28
2023-03-26T13:24:26.960Z,99611.59
2023-03-26T13:27:06.233Z,99603.66
2023-03-26T13:29:45.997Z,99618.72
2023-03-26T13:32:23.532Z,99613.22
2023-03-26T13:35:09.420Z,99614.38
2023-03-26T13:37:43.128Z,99615.34
2023-03-26T13:40:25.418Z,99616.47
2023-03-26T13:43:11.921Z,99613.28
2023-03-26T13:45:53.937Z,99603.84
2023-03-26T13:48:27.923Z,99603.16
2023-03-26T13:51:02.765Z,99596.88
2023-03-26T13:54:02.967Z,99607.16
2023-03-26T13:56:35.803Z,99595.59
2023-03-26T13:59:09.937Z,99599.91
2023-03-26T14:01:45.402Z,99603.22
2023-03-26T14:04:21.351Z,99606.69
2023-03-26T14:06:57.227Z,99608.38
2023-03-26T14:09:32.497Z,99609.50
2023-03-26T14:12:21.491Z,99609.69
2023-03-26T14:14:54.315Z,99614.97
2023-03-26T14:17:27.885Z,99617.94
2023-03-26T14:20:37.348Z,99623.69
2023-03-26T14:23:23.794Z,99619.53
2023-03-26T14:26:07.657Z,99620.53
2023-03-26T14:29:20.509Z,99625.00
2023-03-26T14:31:59.394Z,99625.44
2023-03-26T14:34:45.250Z,99629.22
2023-03-26T14:37:28.474Z,99631.19
2023-03-26T14:40:21.896Z,99631.53
2023-03-26T14:42:58.825Z,99635.00
2023-03-26T14:46:00.192Z,99639.47
2023-03-26T14:48:42.486Z,99639.59
2023-03-26T14:51:34.137Z,99634.16
2023-03-26T14:54:06.722Z,99636.81
2023-03-26T14:57:12.156Z,99639.47
2023-03-26T15:00:23.563Z,99653.00
2023-03-26T15:03:49.030Z,99651.41
2023-03-26T15:07:12.755Z,99648.91
2023-03-26T15:10:12.488Z,99662.03
2023-03-26T15:12:55.259Z,99654.38
2023-03-26T15:15:59.019Z,99662.34
2023-03-26T15:19:02.066Z,99658.69
2023-03-26T15:22:10.455Z,99662.34
2023-03-26T15:25:39.752Z,99675.19
2023-03-26T15:28:35.010Z,99671.31
2023-03-26T15:31:30.949Z,99675.47
2023-03-26T15:34:38.379Z,99679.00
2023-03-26T15:37:39.477Z,99681.78
2023-03-26T15:40:52.022Z,99688.38
2023-03-26T15:43:23.406Z,99687.66
2023-03-26T15:45:54.705Z,99695.94
2023-03-26T15:48:47.424Z,99696.34
2023-03-26T15:51:30.168Z,99701.22
2023-03-26T15:54:08.408Z,99701.41
2023-03-26T15:57:07.020Z,99697.94
2023-03-26T15:59:44.136Z,99708.38
2023-03-26T16:02:26.047Z,99713.69
2023-03-26T16:04:57.555Z,99711.63
2023-03-26T16:07:38.869Z,99727.50
2023-03-26T16:10:19.396Z,99725.44
2023-03-26T16:12:56.588Z,99725.19
2023-03-26T16:15:29.505Z,99728.00
2023-03-26T16:18:35.685Z,99732.88
2023-03-26T16:21:31.132Z,99727.72
2023-03-26T16:24:20.364Z,99739.72
2023-03-26T16:27:03.076Z,99748.34
2023-03-26T16:29:31.131Z,99741.13
2023-03-26T16:32:12.068Z,99751.06
2023-03-26T16:34:47.487Z,99756.47
2023-03-26T16:37:40.943Z,99761.06
2023-03-26T16:40:33.630Z,99766.09
2023-03-26T16:43:19.667Z,99776.84
2023-03-26T16:45:55.386Z,99775.44
2023-03-26T16:48:30.330Z,99786.88
2023-03-26T16:51:09.694Z,99786.19
2023-03-26T16:53:47.590Z,99790.75
2023-03-26T16:56:26.086Z,99798.16
2023-03-26T16:59:02.177Z,99806.22
2023-03-26T17:01:41.377Z,99804.84
2023-03-26T17:04:17.095Z,99811.78
2023-03-26T17:07:03.263Z,99821.41
2023-03-26T17:09:41.365Z,99830.31
2023-03-26T17:12:18.536Z,99832.81
2023-03-26T17:15:02.392Z,99839.47
2023-03-26T17:17:39.855Z,99849.63
2023-03-26T17:20:19.916Z,99845.31
2023-03-26T17:22:51.980Z,99850.75
2023-03-26T17:25:35.896Z,99854.75
2023-03-26T17:28:40.558Z,99863.69
2023-03-26T17:34:48.462Z,99875.63
2023-03-26T17:37:43.289Z,99879.94
2023-03-26T17:40:49.606Z,99898.53
2023-03-26T17:43:38.054Z,99900.50
2023-03-26T17:46:19.641Z,99906.88
2023-03-26T17:48:50.940Z,99908.66
2023-03-26T17:51:37.004Z,99917.13
2023-03-26T17:54:08.368Z,99914.06
2023-03-26T17:56:38.526Z,99924.91
2023-03-26T17:59:11.857Z,99929.34
2023-03-26T18:01:44.978Z,99933.34
2023-03-26T18:04:19.678Z,99937.34
2023-03-26T18:07:04.213Z,99937.72
2023-03-26T18:09:49.907Z,99957.34
2023-03-26T18:12:50.200Z,99955.06
2023-03-26T18:15:35.186Z,99964.94
2023-03-26T18:18:11.754Z,99973.91
2023-03-26T18:20:42.505Z,99983.03
2023-03-26T18:23:13.090Z,99991.31
2023-03-26T18:25:41.387Z,99999.25
2023-03-26T18:28:15.537Z,99995.44
2023-03-26T18:30:48.144Z,100005.81
2023-03-26T18:33:17.188Z,100007.84
2023-03-26T18:35:46.608Z,100013.25
2023-03-26T18:38:34.933Z,100018.66
2023-03-26T18:41:05.780Z,100018.78
2023-03-26T18:43:35.553Z,100030.31
2023-03-26T18:46:13.177Z,100028.78
2023-03-26T18:48:42.721Z,100040.25
2023-03-26T18:51:11.483Z,100047.44
2023-03-26T18:53:41.736Z,100050.94
2023-03-26T18:56:21.752Z,100054.31
2023-03-26T18:58:53.274Z,100054.69
2023-03-26T19:01:25.876Z,100064.16
2023-03-26T19:03:55.374Z,100067.88
2023-03-26T19:06:24.195Z,100075.19
2023-03-26T19:08:52.260Z,100073.28
2023-03-26T19:11:20.471Z,100082.25
2023-03-26T19:13:59.328Z,100092.94
2023-03-26T19:16:33.862Z,100093.06
2023-03-26T19:19:06.406Z,100098.13
2023-03-26T19:21:35.616Z,100103.00
2023-03-26T19:24:05.309Z,100112.97
2023-03-26T19:26:33.274Z,100111.38
2023-03-26T19:29:01.238Z,100119.41
2023-03-26T19:31:34.698Z,100121.31
2023-03-26T19:34:14.648Z,100125.47
2023-03-26T19:36:57.235Z,100138.28
2023-03-26T19:39:36.718Z,100144.34
2023-03-26T19:42:06.974Z,100151.41
2023-03-26T19:44:39.417Z,100153.34
2023-03-26T19:47:15.135Z,100161.25
2023-03-26T19:49:53.140Z,100165.63
2023-03-26T19:52:26.365Z,100171.34
2023-03-26T19:54:59.209Z,100176.75
2023-03-26T19:57:29.502Z,100180.66
2023-03-26T19:59:57.610Z,100178.16
2023-03-26T20:02:25.864Z,100180.66
2023-03-26T20:04:56.487Z,100187.94
2023-03-26T20:07:35.704Z,100190.19
2023-03-26T20:10:05.308Z,100191.25
2023-03-26T20:12:33.209Z,100194.84
2023-03-26T20:15:01.606Z,100204.03
2023-03-26T20:17:30.623Z,100213.91
2023-03-26T20:19:59.723Z,100214.25
2023-03-26T20:22:27.295Z,100224.06
2023-03-26T20:24:56.094Z,100230.03
2023-03-26T20:27:23.766Z,100231.63
2023-03-26T20:29:54.146Z,100238.69
2023-03-26T20:32:26.499Z,100240.84
2023-03-26T20:34:55.049Z,100248.81
2023-03-26T20:37:24.247Z,100252.28
2023-03-26T20:39:51.815Z,100251.88
2023-03-26T20:42:19.412Z,100254.50
2023-03-26T20:44:47.297Z,100264.63
2023-03-26T20:47:14.946Z,100269.88
2023-03-26T20:49:43.069Z,100276.63
2023-03-26T20:52:13.507Z,100271.47
2023-03-26T20:54:42.390Z,100279.47
2023-03-26T20:57:12.507Z,100287.59
2023-03-26T20:59:41.990Z,100294.63
2023-03-26T21:02:11.578Z,100291.66
2023-03-26T21:04:39.215Z,100288.09
2023-03-26T21:07:17.784Z,100293.03
2023-03-26T21:09:48.653Z,100296.09
2023-03-26T21:12:23.524Z,100299.56
2023-03-26T21:14:51.664Z,100301.25
2023-03-26T21:17:24.539Z,100310.94
2023-03-26T21:19:52.387Z,100310.50
2023-03-26T21:22:31.189Z,100315.88
2023-03-26T21:25:12.562Z,100328.06
2023-03-26T21:27:46.788Z,100325.56
2023-03-26T21:30:16.748Z,100331.84
2023-03-26T21:32:46.122Z,100339.72
2023-03-26T21:35:15.998Z,100343.63
2023-03-26T21:37:46.848Z,100347.41
2023-03-26T21:40:18.100Z,100354.47
2023-03-26T21:42:47.855Z,100358.00
2023-03-26T21:45:17.151Z,100370.81
2023-03-26T21:47:45.904Z,100362.22
2023-03-26T21:50:16.144Z,100365.69
2023-03-26T21:52:48.472Z,100370.09
2023-03-26T21:55:19.965Z,100377.53
2023-03-26T21:58:05.424Z,100380.25
2023-03-26T22:00:43.741Z,100382.97
2023-03-26T22:03:18.172Z,100379.72
2023-03-26T22:05:53.860Z,100392.22
2023-03-26T22:08:28.200Z,100400.94
2023-03-26T22:11:00.626Z,100405.84
2023-03-26T22:13:28.509Z,100407.09
2023-03-26T22:15:58.392Z,100411.69
2023-03-26T22:18:29.856Z,100410.19
2023-03-26T22:20:59.110Z,100416.75
2023-03-26T22:23:27.490Z,100422.97
2023-03-26T22:25:55.122Z,100425.69
2023-03-26T22:28:24.264Z,100438.94
2023-03-26T22:30:52.153Z,100442.97
2023-03-26T22:33:20.064Z,100446.63
2023-03-26T22:35:48.072Z,100449.34
2023-03-26T22:38:17.007Z,100450.28
2023-03-26T22:40:46.417Z,100451.31
2023-03-26T22:43:15.884Z,100454.31
2023-03-26T22:45:50.455Z,100468.41
2023-03-26T22:48:18.371Z,100465.09
2023-03-26T22:50:46.440Z,100468.66
2023-03-26T22:53:15.417Z,100468.94
2023-03-26T22:55:43.629Z,100471.78
2023-03-26T22:58:12.403Z,100478.13
2023-03-26T23:00:41.706Z,100477.47
2023-03-26T23:03:14.190Z,100491.44
2023-03-26T23:05:42.528Z,100492.38
2023-03-26T23:08:12.505Z,100496.09
2023-03-26T23:10:43.939Z,100503.22
2023-03-26T23:13:11.637Z,100505.13
2023-03-26T23:15:40.364Z,100511.22
2023-03-26T23:18:08.191Z,100516.72
2023-03-26T23:20:39.358Z,100516.03
2023-03-26T23:23:07.472Z,100526.63
2023-03-26T23:25:35.911Z,100530.31
2023-03-26T23:28:03.517Z,100526.00
2023-03-26T23:30:31.168Z,100529.72
2023-03-26T23:32:58.884Z,100538.53
2023-03-26T23:35:26.533Z,100547.41
2023-03-26T23:37:55.829Z,100544.03
2023-03-26T23:40:23.473Z,100553.69
2023-03-26T23:42:51.015Z,100556.56
2023-03-26T23:45:18.871Z,100563.69
2023-03-26T23:47:46.688Z,100566.31
2023-03-26T23:50:14.558Z,100567.25
2023-03-26T23:52:45.309Z,100579.53
2023-03-26T23:55:15.425Z,100571.91
2023-03-26T23:57:43.089Z,100585.09
